createdAt,value
2019-05-06T00:00:25.189Z,101347.55
2019-05-06T00:02:54.601Z,101339.50
2019-05-06T00:05:25.450Z,101339.41
2019-05-06T00:07:54.969Z,101339.41
2019-05-06T00:10:25.614Z,101340.17
2019-05-06T00:12:54.902Z,101340.17
2019-05-06T00:15:23.801Z,101335.14
2019-05-06T00:17:53.847Z,101332.06
2019-05-06T00:20:24.414Z,101332.06
2019-05-06T00:22:56.306Z,101335.97
2019-05-06T00:25:41.482Z,101332.44
2019-05-06T00:28:34.128Z,101327.86
2019-05-06T00:31:12.873Z,101327.86
2019-05-06T00:33:35.361Z,101327.77
2019-05-06T00:36:04.808Z,101318.95
2019-05-06T00:38:34.253Z,101318.95
2019-05-06T00:41:06.061Z,101317.78
2019-05-06T00:43:34.967Z,101317.78
2019-05-06T00:46:04.643Z,101322.19
2019-05-06T00:48:34.367Z,101320.88
2019-05-06T00:51:04.578Z,101326.41
2019-05-06T00:53:35.902Z,101322.69
2019-05-06T00:56:04.839Z,101325.64
2019-05-06T00:58:34.781Z,101325.64
2019-05-06T01:01:04.657Z,101325.88
2019-05-06T01:03:34.733Z,101324.45
2019-05-06T01:06:04.012Z,101325.66
2019-05-06T01:08:34.770Z,101327.72
2019-05-06T01:11:04.119Z,101319.62
2019-05-06T01:13:44.732Z,101330.40
2019-05-06T01:16:15.746Z,101326.62
2019-05-06T01:18:44.506Z,101325.20
2019-05-06T01:21:14.498Z,101325.44
2019-05-06T01:23:45.046Z,101314.42
2019-05-06T01:26:15.233Z,101329.62
2019-05-06T01:28:44.303Z,101324.05
2019-05-06T01:31:14.090Z,101327.36
2019-05-06T01:33:45.182Z,101327.36
2019-05-06T01:36:14.190Z,101319.36
2019-05-06T01:39:11.063Z,101326.30
2019-05-06T01:41:45.706Z,101315.81
2019-05-06T01:44:14.405Z,101317.75
2019-05-06T01:46:44.739Z,101312.41
2019-05-06T01:49:13.838Z,101311.77
2019-05-06T01:51:43.813Z,101318.06
2019-05-06T01:54:14.127Z,101310.09
2019-05-06T01:56:44.488Z,101309.09
2019-05-06T01:59:14.198Z,101307.76
2019-05-06T02:01:54.809Z,101304.58
2019-05-06T02:04:13.936Z,101314.25
2019-05-06T02:06:43.743Z,101309.92
2019-05-06T02:09:16.675Z,101315.91
2019-05-06T02:11:48.108Z,101311.39
2019-05-06T02:14:16.972Z,101314.66
2019-05-06T02:16:45.850Z,101307.72
2019-05-06T02:19:14.889Z,101300.08
2019-05-06T02:22:01.550Z,101305.59
2019-05-06T02:25:01.470Z,101306.06
2019-05-06T02:27:30.868Z,101304.11
2019-05-06T02:30:17.051Z,101302.46
2019-05-06T02:33:01.093Z,101303.98
2019-05-06T02:36:07.390Z,101306.27
2019-05-06T02:38:46.681Z,101299.19
2019-05-06T02:41:07.130Z,101301.56
2019-05-06T02:43:36.149Z,101299.62
2019-05-06T02:46:04.949Z,101292.03
2019-05-06T02:48:48.452Z,101297.28
2019-05-06T02:51:19.128Z,101294.61
2019-05-06T02:53:47.777Z,101297.83
2019-05-06T02:56:16.416Z,101294.09
2019-05-06T02:58:45.477Z,101294.48
2019-05-06T03:01:14.441Z,101291.16
2019-05-06T03:03:43.779Z,101301.27
2019-05-06T03:06:13.393Z,101289.84
2019-05-06T03:08:43.676Z,101294.73
2019-05-06T03:11:13.763Z,101283.88
2019-05-06T03:13:43.974Z,101290.77
2019-05-06T03:16:14.120Z,101287.33
2019-05-06T03:18:43.747Z,101281.92
2019-05-06T03:21:33.716Z,101281.92
2019-05-06T03:24:23.462Z,101279.00
2019-05-06T03:26:53.444Z,101281.35
2019-05-06T03:29:25.352Z,101283.10
2019-05-06T03:31:56.285Z,101291.54
2019-05-06T03:34:49.506Z,101283.99
2019-05-06T03:36:56.478Z,101287.85
2019-05-06T03:39:25.552Z,101287.42
2019-05-06T03:41:54.145Z,101279.55
2019-05-06T03:44:23.887Z,101286.55
2019-05-06T03:47:13.888Z,101274.30
2019-05-06T03:49:49.687Z,101286.12
2019-05-06T03:52:16.302Z,101285.27
2019-05-06T03:54:47.062Z,101280.48
2019-05-06T03:57:16.052Z,101275.94
2019-05-06T03:59:45.576Z,101276.27
2019-05-06T04:02:14.551Z,101286.62
2019-05-06T04:04:44.092Z,101281.47
2019-05-06T04:07:14.038Z,101281.48
2019-05-06T04:09:44.188Z,101286.78
2019-05-06T04:12:14.408Z,101277.98
2019-05-06T04:14:43.505Z,101277.98
2019-05-06T04:17:17.208Z,101283.09
2019-05-06T04:19:53.218Z,101276.52
2019-05-06T04:22:43.981Z,101285.86
2019-05-06T04:25:33.884Z,101279.27
2019-05-06T04:28:26.655Z,101264.30
2019-05-06T04:30:55.711Z,101262.49
2019-05-06T04:33:24.776Z,101262.49
2019-05-06T04:35:54.213Z,101265.25
2019-05-06T04:38:23.705Z,101265.25
2019-05-06T04:40:53.901Z,101256.02
2019-05-06T04:43:26.962Z,101262.95
2019-05-06T04:45:54.404Z,101264.47
2019-05-06T04:48:23.983Z,101262.23
2019-05-06T04:50:53.730Z,101262.69
2019-05-06T04:53:26.719Z,101262.69
2019-05-06T04:55:54.009Z,101262.72
2019-05-06T04:58:23.630Z,101258.52
2019-05-06T05:00:54.008Z,101262.47
2019-05-06T05:03:23.085Z,101261.61
2019-05-06T05:05:53.028Z,101261.61
2019-05-06T05:08:25.500Z,101282.00
2019-05-06T05:11:00.394Z,101272.88
2019-05-06T05:14:02.806Z,101261.27
2019-05-06T05:16:38.693Z,101266.10
2019-05-06T05:19:09.730Z,101261.34
2019-05-06T05:21:39.066Z,101258.59
2019-05-06T05:24:08.264Z,101255.75
2019-05-06T05:26:38.198Z,101256.93
2019-05-06T05:29:07.577Z,101256.93
2019-05-06T05:31:36.284Z,101263.23
2019-05-06T05:34:05.115Z,101258.83
2019-05-06T05:36:34.359Z,101252.98
2019-05-06T05:39:03.524Z,101254.08
2019-05-06T05:41:33.385Z,101254.08
2019-05-06T05:44:14.358Z,101259.05
2019-05-06T05:46:43.856Z,101252.25
2019-05-06T05:49:24.417Z,101252.25
2019-05-06T05:51:52.408Z,101255.11
2019-05-06T05:54:23.184Z,101259.63
2019-05-06T05:56:53.022Z,101245.98
2019-05-06T05:59:23.123Z,101245.98
2019-05-06T06:01:53.079Z,101241.14
2019-05-06T06:04:22.780Z,101248.48
2019-05-06T06:06:52.094Z,101263.56
2019-05-06T06:09:22.624Z,101254.06
2019-05-06T06:11:57.956Z,101254.06
2019-05-06T06:14:56.218Z,101250.19
2019-05-06T06:17:49.002Z,101243.16
2019-05-06T06:20:35.999Z,101238.06
2019-05-06T06:23:10.676Z,101237.16
2019-05-06T06:25:42.249Z,101239.42
2019-05-06T06:28:11.970Z,101259.33
2019-05-06T06:30:52.054Z,101256.78
2019-05-06T06:33:22.359Z,101256.78
2019-05-06T06:35:58.098Z,101274.42
2019-05-06T06:38:48.300Z,101265.48
2019-05-06T06:41:17.317Z,101265.48
2019-05-06T06:43:48.812Z,101254.68
2019-05-06T06:46:18.161Z,101247.37
2019-05-06T06:48:47.259Z,101250.55
2019-05-06T06:51:16.148Z,101250.55
2019-05-06T06:53:44.869Z,101240.78
2019-05-06T06:56:35.229Z,101247.86
2019-05-06T06:59:09.295Z,101247.86
2019-05-06T07:01:48.067Z,101238.00
2019-05-06T07:04:26.991Z,101241.16
2019-05-06T07:06:56.492Z,101241.61
2019-05-06T07:09:25.567Z,101251.48
2019-05-06T07:11:54.485Z,101247.25
2019-05-06T07:14:23.478Z,101239.94
2019-05-06T07:16:53.368Z,101247.68
2019-05-06T07:19:47.165Z,101244.40
2019-05-06T07:22:15.801Z,101239.48
2019-05-06T07:24:44.401Z,101244.96
2019-05-06T07:27:17.835Z,101231.81
2019-05-06T07:29:48.104Z,101246.31
2019-05-06T07:32:17.572Z,101233.95
2019-05-06T07:34:46.458Z,101229.30
2019-05-06T07:37:15.448Z,101237.67
2019-05-06T07:39:44.338Z,101236.91
2019-05-06T07:42:19.050Z,101231.53
2019-05-06T07:45:07.109Z,101235.58
2019-05-06T07:47:42.639Z,101221.09
2019-05-06T07:50:13.114Z,101241.17
2019-05-06T07:52:44.642Z,101251.75
2019-05-06T07:55:13.674Z,101252.08
2019-05-06T07:57:42.636Z,101236.49
2019-05-06T08:00:12.591Z,101234.48
2019-05-06T08:02:42.586Z,101230.29
2019-05-06T08:05:12.730Z,101242.81
2019-05-06T08:07:42.360Z,101237.83
2019-05-06T08:10:13.540Z,101237.83
2019-05-06T08:12:42.871Z,101231.73
2019-05-06T08:15:12.658Z,101240.55
2019-05-06T08:17:42.587Z,101256.95
2019-05-06T08:20:12.932Z,101256.95
2019-05-06T08:22:56.575Z,101253.48
2019-05-06T08:25:26.036Z,101241.03
2019-05-06T08:27:55.024Z,101241.03
2019-05-06T08:30:24.031Z,101236.85
2019-05-06T08:32:52.996Z,101241.36
2019-05-06T08:35:22.725Z,101231.98
2019-05-06T08:37:53.107Z,101250.05
2019-05-06T08:40:23.680Z,101240.34
2019-05-06T08:42:53.280Z,101235.98
2019-05-06T08:45:22.176Z,101235.98
2019-05-06T08:47:52.347Z,101224.30
2019-05-06T08:50:32.767Z,101224.30
2019-05-06T08:53:13.624Z,101235.11
2019-05-06T08:55:42.113Z,101244.14
2019-05-06T08:58:11.206Z,101238.22
2019-05-06T09:00:47.162Z,101235.80
2019-05-06T09:03:15.754Z,101235.45
2019-05-06T09:05:53.289Z,101228.10
2019-05-06T09:08:23.845Z,101226.02
2019-05-06T09:10:52.870Z,101229.72
2019-05-06T09:13:23.176Z,101229.48
2019-05-06T09:15:52.773Z,101231.44
2019-05-06T09:18:23.868Z,101244.08
2019-05-06T09:20:53.659Z,101221.23
2019-05-06T09:23:22.855Z,101228.30
2019-05-06T09:25:53.147Z,101230.83
2019-05-06T09:28:29.346Z,101227.00
2019-05-06T09:31:12.508Z,101223.98
2019-05-06T09:33:47.156Z,101236.20
2019-05-06T09:36:15.898Z,101221.89
2019-05-06T09:38:44.572Z,101222.77
2019-05-06T09:41:13.666Z,101217.55
2019-05-06T09:43:43.378Z,101238.78
2019-05-06T09:46:13.011Z,101226.13
2019-05-06T09:49:19.664Z,101224.48
2019-05-06T09:51:48.550Z,101217.77
2019-05-06T09:54:33.626Z,101216.95
2019-05-06T09:57:06.303Z,101220.86
2019-05-06T09:59:42.044Z,101207.75
2019-05-06T10:02:12.350Z,101221.11
2019-05-06T10:04:42.844Z,101198.27
2019-05-06T10:07:12.513Z,101219.80
2019-05-06T10:09:43.431Z,101218.25
2019-05-06T10:12:12.881Z,101213.66
2019-05-06T10:14:43.278Z,101209.86
2019-05-06T10:17:13.148Z,101216.72
2019-05-06T10:19:43.036Z,101208.28
2019-05-06T10:22:12.669Z,101204.42
2019-05-06T10:24:43.117Z,101211.91
2019-05-06T10:27:12.438Z,101212.27
2019-05-06T10:29:59.370Z,101201.45
2019-05-06T10:32:39.504Z,101211.05
2019-05-06T10:35:08.935Z,101212.55
2019-05-06T10:37:56.062Z,101208.09
2019-05-06T10:40:28.910Z,101228.41
2019-05-06T10:43:07.766Z,101213.54
2019-05-06T10:45:36.641Z,101208.25
2019-05-06T10:48:06.047Z,101204.34
2019-05-06T10:50:39.513Z,101202.28
2019-05-06T10:53:25.245Z,101207.34
2019-05-06T10:55:55.221Z,101209.91
2019-05-06T10:58:24.513Z,101211.64
2019-05-06T11:01:12.655Z,101219.99
2019-05-06T11:03:42.119Z,101215.77
2019-05-06T11:06:13.164Z,101204.71
2019-05-06T11:08:42.176Z,101203.69
2019-05-06T11:11:15.276Z,101206.70
2019-05-06T11:13:41.375Z,101190.50
2019-05-06T11:16:10.344Z,101196.35
2019-05-06T11:18:39.638Z,101184.45
2019-05-06T11:21:08.273Z,101177.93
2019-05-06T11:23:37.219Z,101182.67
2019-05-06T11:26:05.838Z,101173.52
2019-05-06T11:28:47.706Z,101170.02
2019-05-06T11:31:34.538Z,101170.48
2019-05-06T11:34:25.384Z,101168.80
2019-05-06T11:37:15.055Z,101160.02
2019-05-06T11:39:43.987Z,101153.78
2019-05-06T11:42:27.563Z,101162.04
2019-05-06T11:44:44.044Z,101173.05
2019-05-06T11:47:13.086Z,101175.33
2019-05-06T11:49:44.114Z,101175.75
2019-05-06T11:52:13.146Z,101175.75
2019-05-06T11:54:42.280Z,101169.20
2019-05-06T11:57:12.562Z,101170.95
2019-05-06T11:59:43.256Z,101172.27
2019-05-06T12:02:15.071Z,101166.97
2019-05-06T12:04:43.716Z,101170.52
2019-05-06T12:07:15.793Z,101150.91
2019-05-06T12:09:43.387Z,101151.57
2019-05-06T12:12:12.751Z,101153.28
2019-05-06T12:14:42.923Z,101150.84
2019-05-06T12:17:12.764Z,101151.87
2019-05-06T12:19:43.177Z,101150.53
2019-05-06T12:22:12.609Z,101162.70
2019-05-06T12:24:43.093Z,101169.59
2019-05-06T12:27:14.843Z,101149.53
2019-05-06T12:29:43.571Z,101153.14
2019-05-06T12:32:34.741Z,101160.25
2019-05-06T12:35:03.641Z,101149.13
2019-05-06T12:37:32.827Z,101159.61
2019-05-06T12:40:03.407Z,101155.00
2019-05-06T12:42:35.528Z,101147.53
2019-05-06T12:45:27.518Z,101151.44
2019-05-06T12:47:58.912Z,101149.67
2019-05-06T12:50:27.925Z,101135.95
2019-05-06T12:52:57.829Z,101148.09
2019-05-06T12:55:26.974Z,101141.44
2019-05-06T12:57:55.990Z,101145.63
2019-05-06T13:00:26.433Z,101144.79
2019-05-06T13:02:55.657Z,101140.00
2019-05-06T13:05:24.730Z,101154.41
2019-05-06T13:07:53.622Z,101153.98
2019-05-06T13:10:23.390Z,101156.20
2019-05-06T13:13:12.737Z,101155.22
2019-05-06T13:15:43.510Z,101165.52
2019-05-06T13:18:12.124Z,101165.66
2019-05-06T13:20:48.121Z,101176.61
2019-05-06T13:23:30.074Z,101185.32
2019-05-06T13:25:59.106Z,101199.09
2019-05-06T13:28:31.269Z,101194.03
2019-05-06T13:31:16.140Z,101198.60
2019-05-06T13:33:37.560Z,101194.70
2019-05-06T13:36:06.331Z,101182.52
2019-05-06T13:38:35.205Z,101195.77
2019-05-06T13:41:04.200Z,101202.27
2019-05-06T13:43:43.372Z,101206.64
2019-05-06T13:46:17.680Z,101196.59
2019-05-06T13:48:57.316Z,101203.52
2019-05-06T13:51:27.511Z,101212.13
2019-05-06T13:53:56.413Z,101214.77
2019-05-06T13:56:25.410Z,101206.55
2019-05-06T13:58:54.390Z,101205.33
2019-05-06T14:01:24.731Z,101205.66
2019-05-06T14:03:53.344Z,101202.32
2019-05-06T14:06:21.987Z,101197.23
2019-05-06T14:08:52.927Z,101192.87
2019-05-06T14:11:23.044Z,101199.61
2019-05-06T14:13:53.004Z,101192.17
2019-05-06T14:16:24.543Z,101203.17
2019-05-06T14:18:53.431Z,101192.84
2019-05-06T14:21:23.024Z,101207.48
2019-05-06T14:23:51.881Z,101204.45
2019-05-06T14:26:26.954Z,101198.80
2019-05-06T14:29:02.436Z,101194.59
2019-05-06T14:31:34.252Z,101189.95
2019-05-06T14:34:03.657Z,101186.60
2019-05-06T14:36:32.880Z,101203.52
2019-05-06T14:39:04.717Z,101210.72
2019-05-06T14:41:32.825Z,101204.33
2019-05-06T14:44:02.710Z,101204.25
2019-05-06T14:46:50.757Z,101209.98
2019-05-06T14:49:22.391Z,101207.30
2019-05-06T14:51:50.774Z,101209.42
2019-05-06T14:54:21.732Z,101203.54
2019-05-06T14:56:54.412Z,101205.07
2019-05-06T14:59:23.611Z,101198.74
2019-05-06T15:01:53.646Z,101201.80
2019-05-06T15:04:23.131Z,101197.90
2019-05-06T15:06:52.950Z,101203.58
2019-05-06T15:09:22.641Z,101203.02
2019-05-06T15:11:52.314Z,101210.51
2019-05-06T15:14:22.690Z,101200.10
2019-05-06T15:16:52.832Z,101200.09
2019-05-06T15:19:22.724Z,101204.45
2019-05-06T15:21:53.094Z,101203.15
2019-05-06T15:24:24.433Z,101211.00
2019-05-06T15:26:52.658Z,101217.95
2019-05-06T15:29:23.664Z,101208.33
2019-05-06T15:32:15.020Z,101189.66
2019-05-06T15:34:58.823Z,101209.23
2019-05-06T15:37:33.997Z,101217.05
2019-05-06T15:40:03.220Z,101227.45
2019-05-06T15:42:34.260Z,101215.21
2019-05-06T15:45:04.150Z,101225.20
2019-05-06T15:47:33.245Z,101224.33
2019-05-06T15:50:02.213Z,101233.50
2019-05-06T15:52:32.475Z,101224.33
2019-05-06T15:55:03.242Z,101226.81
2019-05-06T15:57:32.798Z,101224.64
2019-05-06T16:00:02.767Z,101222.51
2019-05-06T16:02:33.491Z,101225.98
2019-05-06T16:05:11.329Z,101227.23
2019-05-06T16:07:37.118Z,101225.95
2019-05-06T16:10:03.723Z,101220.22
2019-05-06T16:12:32.328Z,101226.23
2019-05-06T16:15:02.608Z,101235.72
2019-05-06T16:17:32.802Z,101222.77
2019-05-06T16:20:02.729Z,101220.08
2019-05-06T16:22:33.626Z,101220.66
2019-05-06T16:25:10.569Z,101229.73
2019-05-06T16:27:39.483Z,101225.50
2019-05-06T16:30:09.218Z,101225.20
2019-05-06T16:32:38.183Z,101218.83
2019-05-06T16:35:07.377Z,101212.30
2019-05-06T16:37:36.367Z,101211.39
2019-05-06T16:40:06.058Z,101214.03
2019-05-06T16:42:35.069Z,101217.94
2019-05-06T16:45:06.815Z,101212.73
2019-05-06T16:47:38.251Z,101225.34
2019-05-06T16:50:09.713Z,101223.08
2019-05-06T16:52:39.081Z,101227.12
2019-05-06T16:55:11.370Z,101226.54
2019-05-06T16:57:42.880Z,101229.14
2019-05-06T17:00:14.002Z,101236.39
2019-05-06T17:02:57.870Z,101232.84
2019-05-06T17:05:57.656Z,101234.23
2019-05-06T17:08:26.327Z,101227.14
2019-05-06T17:10:55.756Z,101250.95
2019-05-06T17:13:24.637Z,101238.89
2019-05-06T17:15:53.479Z,101244.89
2019-05-06T17:18:22.774Z,101244.64
2019-05-06T17:20:51.832Z,101253.42
2019-05-06T17:23:22.412Z,101252.23
2019-05-06T17:25:52.083Z,101253.61
2019-05-06T17:28:28.101Z,101228.89
2019-05-06T17:31:07.260Z,101239.13
2019-05-06T17:33:38.479Z,101241.69
2019-05-06T17:36:08.400Z,101239.88
2019-05-06T17:38:48.675Z,101244.41
2019-05-06T17:41:17.670Z,101236.69
2019-05-06T17:43:46.592Z,101243.21
2019-05-06T17:46:17.501Z,101237.98
2019-05-06T17:49:02.371Z,101235.31
2019-05-06T17:51:37.536Z,101246.50
2019-05-06T17:54:06.836Z,101242.52
2019-05-06T17:56:35.657Z,101241.61
2019-05-06T17:59:05.122Z,101237.83
2019-05-06T18:01:37.850Z,101242.93
2019-05-06T18:04:06.873Z,101242.90
2019-05-06T18:06:35.712Z,101242.34
2019-05-06T18:09:07.272Z,101245.89
2019-05-06T18:11:35.949Z,101239.92
2019-05-06T18:14:04.903Z,101261.58
2019-05-06T18:16:34.038Z,101255.97
2019-05-06T18:19:03.253Z,101242.31
2019-05-06T18:21:32.302Z,101249.49
2019-05-06T18:24:03.107Z,101249.84
2019-05-06T18:26:32.772Z,101245.53
2019-05-06T18:29:02.663Z,101243.89
2019-05-06T18:31:33.799Z,101254.17
2019-05-06T18:34:03.879Z,101249.70
2019-05-06T18:36:33.358Z,101251.66
2019-05-06T18:39:03.503Z,101253.48
2019-05-06T18:41:33.008Z,101251.44
2019-05-06T18:44:01.752Z,101263.14
2019-05-06T18:46:32.193Z,101263.92
2019-05-06T18:49:02.509Z,101256.74
2019-05-06T18:51:32.010Z,101264.66
2019-05-06T18:54:02.999Z,101274.12
2019-05-06T18:56:32.430Z,101279.20
2019-05-06T18:59:02.858Z,101278.42
2019-05-06T19:01:33.161Z,101278.20
2019-05-06T19:04:09.149Z,101278.20
2019-05-06T19:06:38.024Z,101284.22
2019-05-06T19:09:42.442Z,101290.84
2019-05-06T19:12:12.817Z,101291.80
2019-05-06T19:14:43.278Z,101293.88
2019-05-06T19:17:13.159Z,101288.42
2019-05-06T19:19:42.821Z,101294.66
2019-05-06T19:22:14.052Z,101286.80
2019-05-06T19:24:44.674Z,101295.84
2019-05-06T19:27:13.814Z,101301.45
2019-05-06T19:29:45.982Z,101294.91
2019-05-06T19:32:14.703Z,101299.95
2019-05-06T19:34:43.567Z,101300.17
2019-05-06T19:37:12.274Z,101298.41
2019-05-06T19:39:43.082Z,101306.73
2019-05-06T19:42:12.960Z,101306.73
2019-05-06T19:44:43.167Z,101307.81
2019-05-06T19:47:13.555Z,101314.00
2019-05-06T19:49:42.473Z,101314.56
2019-05-06T19:52:11.637Z,101312.70
2019-05-06T19:54:42.490Z,101316.20
2019-05-06T19:57:12.473Z,101320.48
2019-05-06T19:59:42.498Z,101316.94
2019-05-06T20:02:12.863Z,101321.30
2019-05-06T20:04:44.424Z,101311.19
2019-05-06T20:07:27.871Z,101320.23
2019-05-06T20:10:18.383Z,101320.66
2019-05-06T20:13:01.205Z,101311.11
2019-05-06T20:15:38.735Z,101312.32
2019-05-06T20:18:08.865Z,101317.95
2019-05-06T20:20:38.467Z,101307.45
2019-05-06T20:23:07.759Z,101312.52
2019-05-06T20:25:37.196Z,101318.22
2019-05-06T20:28:06.338Z,101315.75
2019-05-06T20:30:35.451Z,101319.16
2019-05-06T20:33:04.600Z,101319.27
2019-05-06T20:35:33.780Z,101323.09
2019-05-06T20:38:03.373Z,101317.55
2019-05-06T20:40:32.940Z,101315.30
2019-05-06T20:43:14.224Z,101313.80
2019-05-06T20:45:35.209Z,101317.28
2019-05-06T20:48:03.338Z,101317.67
2019-05-06T20:50:32.398Z,101319.84
2019-05-06T20:53:01.219Z,101316.33
2019-05-06T20:55:34.732Z,101315.05
2019-05-06T20:58:02.623Z,101316.83
2019-05-06T21:00:33.435Z,101323.38
2019-05-06T21:03:02.224Z,101324.80
2019-05-06T21:05:32.312Z,101326.28
2019-05-06T21:08:02.175Z,101326.19
2019-05-06T21:10:32.891Z,101322.15
2019-05-06T21:13:02.463Z,101319.82
2019-05-06T21:15:32.330Z,101346.02
2019-05-06T21:18:04.334Z,101309.27
2019-05-06T21:20:33.004Z,101311.50
2019-05-06T21:23:02.387Z,101310.63
2019-05-06T21:25:32.241Z,101328.73
2019-05-06T21:28:02.839Z,101311.27
2019-05-06T21:30:32.296Z,101324.38
2019-05-06T21:33:01.502Z,101320.89
2019-05-06T21:35:30.156Z,101320.89
2019-05-06T21:37:59.075Z,101325.19
2019-05-06T21:40:28.079Z,101332.14
2019-05-06T21:42:57.378Z,101325.98
2019-05-06T21:45:25.985Z,101326.08
2019-05-06T21:47:54.981Z,101326.08
2019-05-06T21:50:23.941Z,101319.34
2019-05-06T21:52:52.586Z,101319.34
2019-05-06T21:55:22.724Z,101323.99
2019-05-06T21:57:52.964Z,101323.99
2019-05-06T22:00:25.959Z,101310.59
2019-05-06T22:02:55.260Z,101321.69
2019-05-06T22:05:23.913Z,101315.69
2019-05-06T22:07:52.874Z,101332.09
2019-05-06T22:10:22.705Z,101333.81
2019-05-06T22:12:52.748Z,101333.81
2019-05-06T22:15:22.750Z,101325.81
2019-05-06T22:17:54.355Z,101318.52
2019-05-06T22:20:23.780Z,101321.53
2019-05-06T22:22:52.570Z,101319.16
2019-05-06T22:25:22.099Z,101322.25
2019-05-06T22:27:51.950Z,101322.25
2019-05-06T22:30:23.645Z,101326.41
2019-05-06T22:32:52.674Z,101310.50
2019-05-06T22:35:23.091Z,101312.97
2019-05-06T22:37:52.953Z,101314.78
2019-05-06T22:40:23.808Z,101325.14
2019-05-06T22:42:52.987Z,101319.70
2019-05-06T22:45:22.312Z,101319.40
2019-05-06T22:47:51.273Z,101317.99
2019-05-06T22:50:22.454Z,101317.99
2019-05-06T22:52:52.854Z,101324.03
2019-05-06T22:55:22.202Z,101320.65
2019-05-06T22:57:52.825Z,101326.81
2019-05-06T23:00:23.600Z,101326.44
2019-05-06T23:02:57.414Z,101327.36
2019-05-06T23:05:26.332Z,101327.36
2019-05-06T23:07:55.311Z,101326.19
2019-05-06T23:10:24.914Z,101326.61
2019-05-06T23:12:53.919Z,101324.61
2019-05-06T23:15:22.930Z,101328.94
2019-05-06T23:17:52.678Z,101319.70
2019-05-06T23:20:24.194Z,101326.56
2019-05-06T23:22:52.281Z,101330.23
2019-05-06T23:25:22.048Z,101325.85
2019-05-06T23:27:52.986Z,101329.94
2019-05-06T23:30:24.546Z,101329.13
2019-05-06T23:32:53.441Z,101323.14
2019-05-06T23:35:22.416Z,101325.20
2019-05-06T23:38:27.370Z,101325.20
2019-05-06T23:41:32.805Z,101332.98
2019-05-06T23:44:45.544Z,101332.98
2019-05-06T23:47:45.046Z,101329.99
2019-05-06T23:50:50.088Z,101336.12
2019-05-06T23:53:54.916Z,101331.85
2019-05-06T23:56:44.263Z,101326.45
2019-05-06T23:59:15.258Z,101329.03
